createdAt,value
2023-07-24T00:00:39.578Z,11.20
2023-07-24T00:01:39.494Z,9.10
2023-07-24T00:02:39.512Z,18.30
2023-07-24T00:03:39.521Z,9.70
2023-07-24T00:04:39.438Z,9.90
2023-07-24T00:05:39.435Z,8.60
2023-07-24T00:06:39.428Z,15.50
2023-07-24T00:07:39.446Z,12.30
2023-07-24T00:08:39.420Z,8.70
2023-07-24T00:09:39.424Z,10.80
2023-07-24T00:10:39.379Z,13.60
2023-07-24T00:11:39.363Z,13.80
2023-07-24T00:12:39.349Z,10.90
2023-07-24T00:13:39.346Z,10.10
2023-07-24T00:14:39.316Z,15.20
2023-07-24T00:15:39.313Z,10.50
2023-07-24T00:16:39.299Z,11.70
2023-07-24T00:17:39.316Z,11.10
2023-07-24T00:18:39.298Z,10.20
2023-07-24T00:19:39.291Z,6.70
2023-07-24T00:20:39.218Z,6.50
2023-07-24T00:21:39.209Z,7.90
2023-07-24T00:22:39.196Z,14.80
2023-07-24T00:23:39.192Z,8.30
2023-07-24T00:24:39.244Z,5.70
2023-07-24T00:25:39.172Z,9.10
2023-07-24T00:26:39.176Z,7.40
2023-07-24T00:27:39.138Z,6.30
2023-07-24T00:28:39.136Z,4.90
2023-07-24T00:29:39.124Z,11.10
2023-07-24T00:30:39.138Z,5.20
2023-07-24T00:31:39.103Z,10.30
2023-07-24T00:32:39.117Z,8.40
2023-07-24T00:33:39.061Z,8.00
2023-07-24T00:34:39.080Z,8.80
2023-07-24T00:35:39.084Z,13.20
2023-07-24T00:36:39.035Z,13.50
2023-07-24T00:37:39.038Z,7.90
2023-07-24T00:38:39.054Z,14.50
2023-07-24T00:39:38.988Z,9.80
2023-07-24T00:40:38.986Z,11.30
2023-07-24T00:41:38.967Z,10.10
2023-07-24T00:42:38.924Z,6.70
2023-07-24T00:43:38.933Z,14.40
2023-07-24T00:44:38.923Z,13.20
2023-07-24T00:45:38.934Z,13.50
2023-07-24T00:46:38.928Z,10.30
2023-07-24T00:47:38.964Z,12.80
2023-07-24T00:48:38.906Z,12.60
2023-07-24T00:49:38.849Z,13.00
2023-07-24T00:50:38.878Z,11.00
2023-07-24T00:51:38.810Z,9.00
2023-07-24T00:52:38.852Z,8.60
2023-07-24T00:53:38.797Z,15.10
2023-07-24T00:54:38.827Z,8.20
2023-07-24T00:55:38.831Z,15.40
2023-07-24T00:56:38.761Z,11.20
2023-07-24T00:57:38.740Z,13.00
2023-07-24T00:58:38.782Z,10.90
2023-07-24T00:59:38.730Z,10.30
2023-07-24T01:00:38.754Z,10.30
2023-07-24T01:01:38.688Z,9.80
2023-07-24T01:02:38.678Z,14.30
2023-07-24T01:03:38.636Z,12.80
2023-07-24T01:04:38.855Z,12.10
2023-07-24T01:05:38.635Z,11.00
2023-07-24T01:06:38.621Z,9.60
2023-07-24T01:07:38.630Z,15.60
2023-07-24T01:08:38.591Z,11.70
2023-07-24T01:09:38.564Z,14.90
2023-07-24T01:10:38.613Z,11.00
2023-07-24T01:11:38.533Z,11.50
2023-07-24T01:12:38.542Z,9.90
2023-07-24T01:13:38.551Z,17.80
2023-07-24T01:14:38.544Z,11.30
2023-07-24T01:15:38.547Z,10.50
2023-07-24T01:16:38.618Z,10.20
2023-07-24T01:17:38.637Z,11.60
2023-07-24T01:18:38.465Z,14.50
2023-07-24T01:19:38.441Z,10.70
2023-07-24T01:20:38.429Z,16.40
2023-07-24T01:21:38.466Z,18.20
2023-07-24T01:22:38.506Z,17.20
2023-07-24T01:23:38.417Z,7.70
2023-07-24T01:24:38.518Z,13.00
2023-07-24T01:25:38.351Z,10.80
2023-07-24T01:26:38.351Z,12.30
2023-07-24T01:27:38.352Z,15.40
2023-07-24T01:28:38.376Z,14.20
2023-07-24T01:29:38.374Z,13.20
2023-07-24T01:30:38.342Z,11.60
2023-07-24T01:31:38.365Z,16.60
2023-07-24T01:32:38.274Z,10.60
2023-07-24T01:33:38.300Z,14.10
2023-07-24T01:34:38.241Z,11.10
2023-07-24T01:35:38.242Z,14.50
2023-07-24T01:36:38.234Z,16.60
2023-07-24T01:37:38.258Z,16.30
2023-07-24T01:38:38.210Z,13.60
2023-07-24T01:39:38.237Z,13.50
2023-07-24T01:40:38.193Z,14.50
2023-07-24T01:41:38.213Z,11.40
2023-07-24T01:42:38.158Z,13.10
2023-07-24T01:43:38.119Z,13.80
2023-07-24T01:44:38.093Z,11.90
2023-07-24T01:45:38.136Z,13.50
2023-07-24T01:46:38.220Z,11.60
2023-07-24T01:47:38.108Z,14.30
2023-07-24T01:48:38.085Z,14.10
2023-07-24T01:49:38.054Z,9.10
2023-07-24T01:50:38.069Z,6.80
2023-07-24T01:51:38.134Z,11.90
2023-07-24T01:52:38.001Z,16.80
2023-07-24T01:53:37.993Z,9.50
2023-07-24T01:54:38.011Z,11.50
2023-07-24T01:55:38.002Z,12.80
2023-07-24T01:56:37.956Z,12.00
2023-07-24T01:57:38.001Z,10.30
2023-07-24T01:58:37.912Z,10.60
2023-07-24T01:59:37.904Z,8.50
2023-07-24T02:00:37.904Z,11.50
2023-07-24T02:01:37.921Z,11.00
2023-07-24T02:02:37.981Z,10.80
2023-07-24T02:03:37.902Z,7.60
2023-07-24T02:04:37.850Z,10.90
2023-07-24T02:05:37.839Z,10.50
2023-07-24T02:06:37.801Z,10.10
2023-07-24T02:07:37.818Z,10.10
2023-07-24T02:08:37.800Z,12.30
2023-07-24T02:09:37.780Z,9.60
2023-07-24T02:10:37.774Z,18.80
2023-07-24T02:11:37.787Z,9.80
2023-07-24T02:12:37.729Z,9.30
2023-07-24T02:13:37.733Z,14.80
2023-07-24T02:14:37.729Z,10.20
2023-07-24T02:15:37.728Z,11.60
2023-07-24T02:16:37.714Z,9.30
2023-07-24T02:17:37.693Z,13.60
2023-07-24T02:18:37.639Z,12.30
2023-07-24T02:19:37.698Z,10.10
2023-07-24T02:20:37.636Z,14.20
2023-07-24T02:21:37.667Z,9.80
2023-07-24T02:22:37.611Z,9.50
2023-07-24T02:23:37.618Z,13.50
2023-07-24T02:24:37.600Z,10.60
2023-07-24T02:25:37.569Z,8.50
2023-07-24T02:26:37.602Z,14.20
2023-07-24T02:27:37.602Z,11.00
2023-07-24T02:28:37.536Z,11.70
2023-07-24T02:29:37.591Z,10.40
2023-07-24T02:30:37.492Z,11.30
2023-07-24T02:31:37.568Z,9.40
2023-07-24T02:32:37.546Z,9.80
2023-07-24T02:33:37.458Z,11.20
2023-07-24T02:34:37.439Z,15.30
2023-07-24T02:35:37.455Z,11.20
2023-07-24T02:36:37.444Z,12.50
2023-07-24T02:37:37.478Z,12.00
2023-07-24T02:38:37.385Z,8.50
2023-07-24T02:39:37.505Z,8.90
2023-07-24T02:40:37.470Z,11.20
2023-07-24T02:41:37.376Z,8.30
2023-07-24T02:42:37.329Z,12.30
2023-07-24T02:43:37.344Z,9.80
2023-07-24T02:44:37.408Z,8.80
2023-07-24T02:45:37.374Z,8.30
2023-07-24T02:46:37.276Z,9.30
2023-07-24T02:47:37.326Z,10.10
2023-07-24T02:48:37.338Z,11.10
2023-07-24T02:49:37.275Z,11.70
2023-07-24T02:50:37.252Z,12.20
2023-07-24T02:51:37.208Z,11.10
2023-07-24T02:52:37.189Z,8.20
2023-07-24T02:53:37.181Z,12.30
2023-07-24T02:54:37.325Z,11.50
2023-07-24T02:55:37.174Z,10.80
2023-07-24T02:56:37.160Z,12.40
2023-07-24T02:57:37.132Z,11.40
2023-07-24T02:58:37.099Z,12.50
2023-07-24T02:59:37.167Z,11.70
2023-07-24T03:00:37.117Z,10.30
2023-07-24T03:01:37.178Z,8.40
2023-07-24T03:02:37.152Z,11.90
2023-07-24T03:03:37.112Z,9.10
2023-07-24T03:04:37.064Z,9.60
2023-07-24T03:05:37.023Z,12.90
2023-07-24T03:06:37.041Z,7.70
2023-07-24T03:07:37.035Z,9.70
2023-07-24T03:08:37.028Z,13.50
2023-07-24T03:09:36.988Z,10.70
2023-07-24T03:10:36.995Z,12.90
2023-07-24T03:11:36.966Z,12.00
2023-07-24T03:12:36.943Z,9.20
2023-07-24T03:13:36.957Z,13.20
2023-07-24T03:14:36.912Z,10.10
2023-07-24T03:15:36.963Z,15.30
2023-07-24T03:16:36.898Z,13.80
2023-07-24T03:17:36.910Z,11.30
2023-07-24T03:18:36.844Z,13.70
2023-07-24T03:19:37.258Z,14.90
2023-07-24T03:20:36.898Z,12.50
2023-07-24T03:21:36.812Z,13.30
2023-07-24T03:22:36.832Z,14.00
2023-07-24T03:23:36.805Z,16.60
2023-07-24T03:24:36.833Z,14.50
2023-07-24T03:25:36.866Z,13.90
2023-07-24T03:26:36.799Z,15.20
2023-07-24T03:27:36.748Z,12.70
2023-07-24T03:28:36.732Z,13.40
2023-07-24T03:29:36.761Z,18.00
2023-07-24T03:30:36.813Z,15.00
2023-07-24T03:31:36.813Z,12.00
2023-07-24T03:32:36.712Z,16.30
2023-07-24T03:33:36.798Z,18.60
2023-07-24T03:34:36.622Z,28.20
2023-07-24T03:35:36.678Z,26.60
2023-07-24T03:36:36.611Z,20.40
2023-07-24T03:37:36.591Z,27.50
2023-07-24T03:38:36.586Z,16.10
2023-07-24T03:39:36.677Z,21.10
2023-07-24T03:40:36.565Z,21.90
2023-07-24T03:41:36.665Z,16.00
2023-07-24T03:42:36.548Z,18.90
2023-07-24T03:43:36.539Z,20.80
2023-07-24T03:44:36.543Z,38.50
2023-07-24T03:45:36.516Z,29.40
2023-07-24T03:46:36.554Z,28.20
2023-07-24T03:47:36.545Z,22.50
2023-07-24T03:48:36.574Z,22.00
2023-07-24T03:49:36.512Z,25.70
2023-07-24T03:50:36.399Z,25.40
2023-07-24T03:51:36.461Z,24.50
2023-07-24T03:52:36.438Z,30.90
2023-07-24T03:53:36.406Z,29.10
2023-07-24T03:54:36.460Z,28.20
2023-07-24T03:55:36.433Z,24.20
2023-07-24T03:56:36.389Z,27.90
2023-07-24T03:57:36.388Z,42.50
2023-07-24T03:58:36.370Z,34.70
2023-07-24T03:59:36.323Z,33.40
2023-07-24T04:00:37.518Z,24.90
2023-07-24T04:01:36.266Z,30.10
2023-07-24T04:02:36.387Z,46.20
2023-07-24T04:03:36.311Z,31.30
2023-07-24T04:04:36.299Z,35.10
2023-07-24T04:05:36.253Z,40.40
2023-07-24T04:06:36.280Z,30.40
2023-07-24T04:07:36.218Z,28.60
2023-07-24T04:08:36.223Z,47.20
2023-07-24T04:09:36.176Z,30.30
2023-07-24T04:10:36.160Z,21.90
2023-07-24T04:11:36.160Z,39.40
2023-07-24T04:12:36.149Z,28.70
2023-07-24T04:13:36.149Z,29.40
2023-07-24T04:14:36.124Z,33.80
2023-07-24T04:15:37.376Z,27.60
2023-07-24T04:16:36.463Z,30.40
2023-07-24T04:17:36.108Z,28.80
2023-07-24T04:18:36.145Z,30.40
2023-07-24T04:19:36.120Z,45.50
2023-07-24T04:20:36.030Z,27.50
2023-07-24T04:21:36.089Z,30.40
2023-07-24T04:22:35.996Z,26.60
2023-07-24T04:23:37.281Z,24.90
2023-07-24T04:24:36.068Z,34.50
2023-07-24T04:25:35.950Z,35.20
2023-07-24T04:26:37.843Z,33.40
2023-07-24T04:27:35.950Z,30.70
2023-07-24T04:28:35.937Z,30.20
2023-07-24T04:29:35.990Z,43.00
2023-07-24T04:30:35.967Z,22.50
2023-07-24T04:31:35.950Z,41.10
2023-07-24T04:32:35.921Z,15.70
2023-07-24T04:33:36.475Z,31.50
2023-07-24T04:34:35.851Z,48.20
2023-07-24T04:35:35.875Z,17.30
2023-07-24T04:36:35.807Z,45.90
2023-07-24T04:37:35.842Z,27.70
2023-07-24T04:38:35.775Z,49.70
2023-07-24T04:39:35.814Z,37.90
2023-07-24T04:40:35.796Z,23.80
2023-07-24T04:41:35.746Z,49.80
2023-07-24T04:42:35.727Z,48.10
2023-07-24T04:43:35.735Z,40.40
2023-07-24T04:44:35.724Z,34.30
2023-07-24T04:45:35.697Z,34.60
2023-07-24T04:46:35.914Z,48.30
2023-07-24T04:47:35.714Z,26.60
2023-07-24T04:48:35.679Z,39.60
2023-07-24T04:49:35.755Z,28.70
2023-07-24T04:50:35.641Z,32.60
2023-07-24T04:51:36.732Z,25.50
2023-07-24T04:52:35.621Z,37.90
2023-07-24T04:53:35.619Z,32.10
2023-07-24T04:54:38.614Z,36.90
2023-07-24T04:55:35.680Z,20.90
2023-07-24T04:56:35.545Z,21.50
2023-07-24T04:57:39.538Z,19.10
2023-07-24T04:58:35.587Z,18.70
2023-07-24T04:59:37.398Z,17.10
2023-07-24T05:00:35.517Z,24.80
2023-07-24T05:01:35.543Z,40.40
2023-07-24T05:02:35.536Z,26.00
2023-07-24T05:03:35.471Z,15.70
2023-07-24T05:04:35.474Z,21.20
2023-07-24T05:05:35.536Z,14.60
2023-07-24T05:06:35.445Z,34.60
2023-07-24T05:07:35.412Z,22.20
2023-07-24T05:08:35.445Z,20.30
2023-07-24T05:09:35.412Z,20.40
2023-07-24T05:10:35.427Z,19.90
2023-07-24T05:11:35.465Z,30.00
2023-07-24T05:12:35.349Z,37.40
2023-07-24T05:13:35.338Z,18.30
2023-07-24T05:14:35.363Z,27.40
2023-07-24T05:15:35.309Z,31.40
2023-07-24T05:16:35.436Z,27.20
2023-07-24T05:17:35.318Z,31.00
2023-07-24T05:18:35.338Z,26.60
2023-07-24T05:19:35.242Z,24.00
2023-07-24T05:20:35.252Z,51.40
2023-07-24T05:21:35.234Z,21.00
2023-07-24T05:22:35.199Z,29.50
2023-07-24T05:23:35.237Z,36.70
2023-07-24T05:24:35.427Z,41.40
2023-07-24T05:25:35.191Z,21.00
2023-07-24T05:26:35.145Z,44.10
2023-07-24T05:27:35.213Z,39.70
2023-07-24T05:28:35.153Z,38.10
2023-07-24T05:29:35.169Z,30.60
2023-07-24T05:30:35.151Z,23.30
2023-07-24T05:31:35.150Z,28.50
2023-07-24T05:32:35.144Z,36.10
2023-07-24T05:33:36.599Z,35.90
2023-07-24T05:34:35.118Z,17.80
2023-07-24T05:35:35.325Z,16.00
2023-07-24T05:36:35.452Z,22.30
2023-07-24T05:37:34.999Z,20.70
2023-07-24T05:38:34.996Z,24.10
2023-07-24T05:39:35.017Z,22.80
2023-07-24T05:40:34.975Z,18.30
2023-07-24T05:41:34.971Z,19.50
2023-07-24T05:42:34.972Z,23.70
2023-07-24T05:43:34.938Z,32.90
2023-07-24T05:44:34.894Z,20.90
2023-07-24T05:45:34.959Z,21.50
2023-07-24T05:46:35.074Z,24.30
2023-07-24T05:47:35.133Z,29.70
2023-07-24T05:48:34.985Z,17.90
2023-07-24T05:49:34.912Z,19.20
2023-07-24T05:50:34.847Z,23.70
2023-07-24T05:51:34.802Z,28.70
2023-07-24T05:52:34.852Z,17.20
2023-07-24T05:53:34.928Z,35.50
2023-07-24T05:54:42.310Z,25.30
2023-07-24T05:55:34.821Z,27.80
2023-07-24T05:56:37.190Z,15.40
2023-07-24T05:57:34.762Z,21.40
2023-07-24T05:58:34.769Z,13.80
2023-07-24T05:59:34.708Z,16.20
2023-07-24T06:00:34.709Z,18.50
2023-07-24T06:01:34.775Z,27.90
2023-07-24T06:02:34.711Z,13.60
2023-07-24T06:03:34.841Z,19.20
2023-07-24T06:04:34.716Z,13.50
2023-07-24T06:05:34.686Z,15.00
2023-07-24T06:06:34.657Z,15.10
2023-07-24T06:07:34.635Z,15.70
2023-07-24T06:08:34.709Z,21.60
2023-07-24T06:09:34.619Z,13.40
2023-07-24T06:10:34.563Z,21.80
2023-07-24T06:11:34.547Z,33.70
2023-07-24T06:12:34.536Z,19.00
2023-07-24T06:13:34.531Z,16.30
2023-07-24T06:14:34.513Z,18.60
2023-07-24T06:15:34.573Z,40.90
2023-07-24T06:16:34.493Z,16.00
2023-07-24T06:17:34.479Z,25.70
2023-07-24T06:18:35.931Z,25.80
2023-07-24T06:19:34.460Z,16.30
2023-07-24T06:20:34.546Z,19.30
2023-07-24T06:21:34.419Z,21.40
2023-07-24T06:22:34.472Z,18.30
2023-07-24T06:23:34.622Z,21.50
2023-07-24T06:24:34.492Z,29.40
2023-07-24T06:25:34.462Z,28.40
2023-07-24T06:26:34.411Z,36.20
2023-07-24T06:27:34.338Z,23.30
2023-07-24T06:28:34.322Z,41.80
2023-07-24T06:29:34.331Z,54.70
2023-07-24T06:30:34.320Z,47.30
2023-07-24T06:31:34.346Z,46.50
2023-07-24T06:32:34.309Z,36.10
2023-07-24T06:33:34.340Z,31.80
2023-07-24T06:34:34.244Z,31.50
2023-07-24T06:35:34.217Z,55.10
2023-07-24T06:36:35.740Z,31.00
2023-07-24T06:37:34.262Z,28.00
2023-07-24T06:38:34.197Z,19.90
2023-07-24T06:39:34.149Z,28.10
2023-07-24T06:40:34.219Z,20.10
2023-07-24T06:41:34.201Z,45.50
2023-07-24T06:42:34.213Z,28.30
2023-07-24T06:43:34.153Z,28.90
2023-07-24T06:44:34.172Z,35.40
2023-07-24T06:45:34.487Z,31.20
2023-07-24T06:46:34.062Z,14.50
2023-07-24T06:47:34.151Z,15.40
2023-07-24T06:48:34.041Z,25.60
2023-07-24T06:49:34.090Z,18.70
2023-07-24T06:50:34.064Z,21.80
2023-07-24T06:51:34.054Z,15.70
2023-07-24T06:52:34.039Z,24.20
2023-07-24T06:53:34.055Z,21.40
2023-07-24T06:54:34.019Z,31.40
2023-07-24T06:55:33.998Z,15.60
2023-07-24T06:56:33.992Z,18.30
2023-07-24T06:57:33.983Z,15.10
2023-07-24T06:58:33.997Z,21.10
2023-07-24T06:59:33.949Z,14.30
2023-07-24T07:00:33.901Z,14.30
2023-07-24T07:01:33.982Z,13.10
2023-07-24T07:02:33.973Z,29.90
2023-07-24T07:03:33.989Z,19.60
2023-07-24T07:04:33.861Z,12.40
2023-07-24T07:05:33.831Z,15.70
2023-07-24T07:06:34.697Z,12.10
2023-07-24T07:07:33.837Z,17.20
2023-07-24T07:08:33.843Z,10.80
2023-07-24T07:09:33.775Z,17.60
2023-07-24T07:10:33.785Z,10.40
2023-07-24T07:11:33.744Z,13.20
2023-07-24T07:12:33.761Z,13.40
2023-07-24T07:13:33.798Z,18.40
2023-07-24T07:14:33.721Z,10.90
2023-07-24T07:15:33.729Z,10.30
2023-07-24T07:16:33.962Z,13.90
2023-07-24T07:17:33.721Z,13.60
2023-07-24T07:18:33.704Z,11.70
2023-07-24T07:19:33.664Z,14.80
2023-07-24T07:20:33.654Z,16.50
2023-07-24T07:21:33.637Z,10.00
2023-07-24T07:22:33.612Z,16.50
2023-07-24T07:23:33.599Z,10.90
2023-07-24T07:24:33.637Z,12.30
2023-07-24T07:25:33.778Z,10.50
2023-07-24T07:26:33.675Z,20.50
2023-07-24T07:27:33.661Z,7.60
2023-07-24T07:28:33.701Z,7.60
2023-07-24T07:29:33.504Z,7.40
2023-07-24T07:30:33.495Z,6.70
2023-07-24T07:31:33.519Z,5.60
2023-07-24T07:32:33.486Z,7.70
2023-07-24T07:33:33.478Z,7.60
2023-07-24T07:34:33.443Z,6.20
2023-07-24T07:35:33.475Z,8.30
2023-07-24T07:36:33.497Z,7.00
2023-07-24T07:37:33.426Z,8.40
2023-07-24T07:38:33.417Z,7.30
2023-07-24T07:39:33.394Z,7.90
2023-07-24T07:40:33.348Z,7.00
2023-07-24T07:41:33.399Z,6.60
2023-07-24T07:42:33.386Z,7.40
2023-07-24T07:43:33.371Z,6.20
2023-07-24T07:44:33.345Z,6.00
2023-07-24T07:45:33.398Z,5.50
2023-07-24T07:46:34.762Z,4.60
2023-07-24T07:47:33.325Z,5.80
2023-07-24T07:48:33.268Z,5.90
2023-07-24T07:49:33.268Z,6.10
2023-07-24T07:50:33.251Z,5.40
2023-07-24T07:51:33.178Z,4.00
2023-07-24T07:52:33.213Z,5.90
2023-07-24T07:53:33.157Z,4.80
2023-07-24T07:54:33.187Z,4.10
2023-07-24T07:55:33.169Z,6.90
2023-07-24T07:56:33.175Z,3.40
2023-07-24T07:57:33.168Z,3.70
2023-07-24T07:58:33.148Z,2.90
2023-07-24T07:59:33.087Z,4.50
2023-07-24T08:00:33.108Z,3.90
2023-07-24T08:01:33.080Z,3.80
2023-07-24T08:02:33.171Z,3.70
2023-07-24T08:03:33.093Z,3.80
2023-07-24T08:04:33.019Z,4.50
2023-07-24T08:05:33.019Z,4.30
2023-07-24T08:06:33.351Z,5.10
2023-07-24T08:07:33.028Z,3.60
2023-07-24T08:08:33.005Z,4.80
2023-07-24T08:09:33.074Z,3.60
2023-07-24T08:10:32.977Z,4.30
2023-07-24T08:11:32.944Z,4.50
2023-07-24T08:12:33.027Z,4.10
2023-07-24T08:13:32.914Z,3.60
2023-07-24T08:14:32.972Z,2.70
2023-07-24T08:15:32.936Z,4.40
2023-07-24T08:16:33.571Z,3.80
2023-07-24T08:17:33.012Z,3.20
2023-07-24T08:18:32.957Z,2.60
2023-07-24T08:19:32.840Z,2.80
2023-07-24T08:20:32.836Z,2.50
2023-07-24T08:21:32.882Z,2.50
2023-07-24T08:22:32.821Z,3.40
2023-07-24T08:23:32.776Z,3.20
2023-07-24T08:24:32.792Z,2.50
2023-07-24T08:25:32.800Z,2.70
2023-07-24T08:26:33.161Z,2.10
2023-07-24T08:27:32.904Z,2.00
2023-07-24T08:28:32.735Z,2.00
2023-07-24T08:29:32.706Z,2.70
2023-07-24T08:30:32.711Z,2.50
2023-07-24T08:31:32.754Z,2.30
2023-07-24T08:32:32.697Z,2.10
2023-07-24T08:33:32.670Z,1.60
2023-07-24T08:34:32.612Z,1.90
2023-07-24T08:35:32.617Z,2.20
2023-07-24T08:36:32.945Z,2.60
2023-07-24T08:37:32.564Z,1.90
2023-07-24T08:38:32.580Z,2.30
2023-07-24T08:39:32.695Z,2.70
2023-07-24T08:40:32.540Z,1.70
2023-07-24T08:41:32.580Z,2.50
2023-07-24T08:42:32.547Z,1.90
2023-07-24T08:43:32.536Z,2.70
2023-07-24T08:44:32.500Z,1.70
2023-07-24T08:45:32.510Z,1.90
2023-07-24T08:46:32.797Z,1.60
2023-07-24T08:47:32.462Z,1.80
2023-07-24T08:48:32.514Z,1.90
2023-07-24T08:49:32.434Z,1.60
2023-07-24T08:50:32.410Z,2.10
2023-07-24T08:51:32.380Z,1.90
2023-07-24T08:52:36.461Z,1.70
2023-07-24T08:53:32.377Z,2.00
2023-07-24T08:54:32.530Z,1.80
2023-07-24T08:55:32.325Z,2.70
2023-07-24T08:56:32.713Z,1.40
2023-07-24T08:57:32.348Z,2.30
2023-07-24T08:58:32.338Z,1.60
2023-07-24T08:59:32.307Z,3.10
2023-07-24T09:00:32.364Z,2.80
2023-07-24T09:01:32.323Z,2.00
2023-07-24T09:02:32.292Z,2.40
2023-07-24T09:03:33.423Z,3.00
2023-07-24T09:04:33.375Z,2.30
2023-07-24T09:05:32.254Z,2.90
2023-07-24T09:06:34.165Z,2.90
2023-07-24T09:07:32.237Z,2.90
2023-07-24T09:08:32.201Z,2.60
2023-07-24T09:09:32.187Z,2.90
2023-07-24T09:10:33.508Z,2.40
2023-07-24T09:11:32.167Z,2.60
2023-07-24T09:12:32.121Z,2.10
2023-07-24T09:13:32.470Z,3.40
2023-07-24T09:14:32.627Z,3.10
2023-07-24T09:15:32.070Z,3.40
2023-07-24T09:16:32.495Z,2.30
2023-07-24T09:17:36.800Z,2.70
2023-07-24T09:18:32.091Z,2.00
2023-07-24T09:19:33.355Z,1.80
2023-07-24T09:20:36.506Z,3.10
2023-07-24T09:21:44.791Z,2.30
2023-07-24T09:23:58.902Z,1.70
2023-07-24T09:24:58.779Z,1.90
2023-07-24T09:25:59.166Z,1.30
2023-07-24T09:26:59.172Z,1.50
2023-07-24T09:28:11.676Z,1.30
2023-07-24T09:29:02.297Z,1.60
2023-07-24T09:30:14.130Z,1.40
2023-07-24T09:30:58.761Z,1.50
2023-07-24T09:31:58.656Z,3.10
2023-07-24T09:32:58.682Z,1.60
2023-07-24T09:33:58.693Z,1.50
2023-07-24T09:34:58.592Z,2.30
2023-07-24T09:35:58.595Z,2.40
2023-07-24T09:36:58.651Z,1.60
2023-07-24T09:37:58.579Z,2.60
2023-07-24T09:38:59.288Z,2.00
2023-07-24T09:40:00.873Z,1.90
2023-07-24T09:40:58.669Z,1.90
2023-07-24T09:41:58.655Z,2.20
2023-07-24T09:43:25.073Z,1.50
2023-07-24T09:43:59.495Z,2.40
2023-07-24T09:44:58.544Z,1.10
2023-07-24T09:45:58.497Z,1.40
2023-07-24T09:47:04.822Z,1.40
2023-07-24T09:48:05.247Z,1.40
2023-07-24T09:49:58.484Z,1.30
2023-07-24T09:50:58.393Z,1.60
2023-07-24T09:51:58.789Z,1.30
2023-07-24T09:52:58.365Z,1.30
2023-07-24T09:53:58.451Z,1.50
2023-07-24T09:54:58.942Z,1.50
2023-07-24T09:55:58.713Z,3.40
2023-07-24T09:57:10.700Z,1.60
2023-07-24T09:58:00.179Z,1.60
2023-07-24T09:58:59.499Z,1.50
2023-07-24T09:59:58.821Z,1.70
2023-07-24T10:00:58.260Z,1.50
2023-07-24T10:01:58.289Z,1.70
2023-07-24T10:02:58.457Z,1.40
2023-07-24T10:03:58.270Z,1.20
2023-07-24T10:04:58.328Z,1.20
2023-07-24T10:05:58.237Z,1.80
2023-07-24T10:06:58.296Z,1.30
2023-07-24T10:07:58.199Z,1.30
2023-07-24T10:08:58.155Z,1.90
2023-07-24T10:09:58.163Z,1.70
2023-07-24T10:11:07.440Z,3.40
2023-07-24T10:11:59.731Z,1.50
2023-07-24T10:12:58.203Z,1.50
2023-07-24T10:13:58.175Z,6.30
2023-07-24T10:14:58.086Z,2.90
2023-07-24T10:15:58.224Z,2.50
2023-07-24T10:16:58.130Z,2.40
2023-07-24T10:17:58.159Z,2.00
2023-07-24T10:18:58.112Z,1.40
2023-07-24T10:19:57.999Z,3.10
2023-07-24T10:20:57.985Z,2.40
2023-07-24T10:21:58.077Z,1.50
2023-07-24T10:22:58.042Z,1.30
2023-07-24T10:23:58.028Z,1.70
2023-07-24T10:24:57.987Z,1.50
2023-07-24T10:25:57.991Z,1.50
2023-07-24T10:26:57.988Z,1.50
2023-07-24T10:27:58.366Z,1.20
2023-07-24T10:28:57.896Z,1.20
2023-07-24T10:29:57.957Z,1.80
2023-07-24T10:30:58.637Z,1.70
2023-07-24T10:31:57.981Z,1.50
2023-07-24T10:32:57.929Z,2.30
2023-07-24T10:33:57.900Z,1.70
2023-07-24T10:34:57.835Z,1.90
2023-07-24T10:35:57.812Z,2.20
2023-07-24T10:36:57.780Z,2.20
2023-07-24T10:37:57.788Z,2.00
2023-07-24T10:38:57.757Z,2.30
2023-07-24T10:39:57.823Z,2.40
2023-07-24T10:40:57.725Z,2.60
2023-07-24T10:41:57.727Z,6.60
2023-07-24T10:42:57.706Z,4.90
2023-07-24T10:43:57.722Z,6.00
2023-07-24T10:44:57.683Z,4.50
2023-07-24T10:45:57.702Z,4.60
2023-07-24T10:46:57.635Z,6.00
2023-07-24T10:47:57.639Z,6.80
2023-07-24T10:48:57.676Z,4.50
2023-07-24T10:49:57.679Z,6.50
2023-07-24T10:50:57.606Z,6.00
2023-07-24T10:51:57.594Z,8.80
2023-07-24T10:52:57.654Z,10.30
2023-07-24T10:53:57.593Z,12.10
2023-07-24T10:54:57.798Z,7.20
2023-07-24T10:55:57.541Z,9.10
2023-07-24T10:56:57.553Z,12.00
2023-07-24T10:57:57.541Z,15.70
2023-07-24T10:58:57.543Z,12.10
2023-07-24T10:59:57.578Z,10.00
2023-07-24T11:00:57.517Z,11.40
2023-07-24T11:01:57.553Z,12.60
2023-07-24T11:02:57.567Z,16.80
2023-07-24T11:03:57.456Z,16.10
2023-07-24T11:04:57.460Z,14.20
2023-07-24T11:05:57.406Z,7.70
2023-07-24T11:06:57.438Z,11.40
2023-07-24T11:07:57.429Z,9.00
2023-07-24T11:08:57.428Z,7.40
2023-07-24T11:09:57.347Z,7.10
2023-07-24T11:10:57.473Z,9.20
2023-07-24T11:11:57.364Z,12.30
2023-07-24T11:12:57.322Z,14.40
2023-07-24T11:13:57.279Z,9.70
2023-07-24T11:14:57.365Z,15.00
2023-07-24T11:15:57.445Z,15.40
2023-07-24T11:16:57.275Z,14.20
2023-07-24T11:17:57.268Z,19.10
2023-07-24T11:18:57.271Z,15.80
2023-07-24T11:19:57.206Z,30.70
2023-07-24T11:20:57.234Z,15.80
2023-07-24T11:21:57.214Z,18.40
2023-07-24T11:22:57.223Z,17.40
2023-07-24T11:23:57.222Z,26.30
2023-07-24T11:24:57.279Z,16.60
2023-07-24T11:25:57.150Z,13.50
2023-07-24T11:26:57.209Z,9.50
2023-07-24T11:27:57.175Z,19.40
2023-07-24T11:28:57.112Z,12.70
2023-07-24T11:29:57.118Z,41.60
2023-07-24T11:30:57.121Z,39.10
2023-07-24T11:31:57.036Z,15.90
2023-07-24T11:32:57.074Z,24.50
2023-07-24T11:33:57.015Z,12.70
2023-07-24T11:34:57.045Z,28.30
2023-07-24T11:35:56.985Z,18.10
2023-07-24T11:36:57.016Z,22.30
2023-07-24T11:37:56.989Z,17.00
2023-07-24T11:38:57.117Z,10.60
2023-07-24T11:39:56.951Z,14.90
2023-07-24T11:40:57.047Z,30.90
2023-07-24T11:41:56.938Z,13.00
2023-07-24T11:42:56.948Z,30.80
2023-07-24T11:43:56.937Z,34.40
2023-07-24T11:44:57.040Z,28.90
2023-07-24T11:45:56.978Z,17.60
2023-07-24T11:46:59.218Z,29.40
2023-07-24T11:47:56.947Z,38.60
2023-07-24T11:48:56.855Z,22.40
2023-07-24T11:49:56.879Z,38.30
2023-07-24T11:50:56.899Z,9.00
2023-07-24T11:51:56.874Z,23.90
2023-07-24T11:52:56.786Z,46.60
2023-07-24T11:53:56.818Z,34.10
2023-07-24T11:54:56.830Z,22.60
2023-07-24T11:55:56.810Z,28.20
2023-07-24T11:56:56.737Z,25.40
2023-07-24T11:57:56.728Z,26.00
2023-07-24T11:58:56.817Z,20.00
2023-07-24T11:59:56.679Z,22.90
2023-07-24T12:00:56.679Z,23.90
2023-07-24T12:01:56.690Z,27.40
2023-07-24T12:02:56.770Z,29.50
2023-07-24T12:03:56.737Z,19.60
2023-07-24T12:04:56.628Z,30.40
2023-07-24T12:05:56.630Z,15.00
2023-07-24T12:06:56.580Z,18.00
2023-07-24T12:07:56.581Z,20.30
2023-07-24T12:08:56.564Z,21.30
2023-07-24T12:09:56.592Z,22.40
2023-07-24T12:10:56.585Z,41.40
2023-07-24T12:11:56.525Z,58.10
2023-07-24T12:12:56.531Z,40.00
2023-07-24T12:13:56.502Z,152.50
2023-07-24T12:14:56.494Z,76.40
2023-07-24T12:15:56.880Z,97.90
2023-07-24T12:16:56.509Z,536.30
2023-07-24T12:17:56.508Z,998.80
2023-07-24T12:18:56.516Z,741.00
2023-07-24T12:19:56.456Z,174.50
2023-07-24T12:20:56.428Z,81.70
2023-07-24T12:21:56.391Z,36.80
2023-07-24T12:22:56.400Z,193.50
2023-07-24T12:23:56.392Z,43.50
2023-07-24T12:24:56.428Z,91.70
2023-07-24T12:25:56.373Z,15.60
2023-07-24T12:26:56.336Z,61.40
2023-07-24T12:27:56.360Z,15.70
2023-07-24T12:28:56.334Z,33.00
2023-07-24T12:29:56.324Z,25.00
2023-07-24T12:30:56.370Z,14.30
2023-07-24T12:31:56.244Z,9.40
2023-07-24T12:32:56.328Z,5.80
2023-07-24T12:33:56.262Z,8.60
2023-07-24T12:34:56.328Z,6.00
2023-07-24T12:35:56.213Z,6.40
2023-07-24T12:36:56.335Z,8.50
2023-07-24T12:37:56.223Z,5.20
2023-07-24T12:38:56.250Z,8.60
2023-07-24T12:39:56.238Z,6.00
2023-07-24T12:40:56.237Z,8.70
2023-07-24T12:41:56.139Z,8.70
2023-07-24T12:42:56.224Z,18.70
2023-07-24T12:43:56.103Z,8.40
2023-07-24T12:44:58.783Z,5.20
2023-07-24T12:45:56.074Z,5.70
2023-07-24T12:46:56.142Z,4.60
2023-07-24T12:47:56.093Z,5.00
2023-07-24T12:48:56.036Z,8.50
2023-07-24T12:49:56.081Z,6.20
2023-07-24T12:50:56.054Z,7.00
2023-07-24T12:51:55.975Z,5.30
2023-07-24T12:52:56.008Z,13.80
2023-07-24T12:54:02.835Z,9.90
2023-07-24T12:55:02.322Z,11.40
2023-07-24T12:55:56.933Z,28.70
2023-07-24T12:56:55.988Z,6.70
2023-07-24T12:57:55.982Z,32.20
2023-07-24T12:58:55.932Z,9.10
2023-07-24T12:59:55.950Z,47.40
2023-07-24T13:00:56.011Z,152.40
2023-07-24T13:01:55.930Z,8.90
2023-07-24T13:02:55.965Z,21.90
2023-07-24T13:03:55.866Z,4.10